Time;durP1;ratioP1;P1;durP2;ratioP2;P2;SDS_P1;SDS_P2;PMS_P1;PMS_P2;Temp;Humidity;BMP_temperature;BMP_pressure;BME280_temperature;BME280_humidity;BME280_pressure;Samples;Min_cycle;Max_cycle;Signal;HPM_P1;HPM_P2
2023/10/01 04:33:16;;;;;;;4.20;1.67;;;;;;;;;;5120473;27;20728;-79
2023/10/01 04:35:51;;;;;;;3.58;1.40;;;;;;;;;;5065316;28;20063;-80
2023/10/01 04:38:21;;;;;;;2.75;1.20;;;;;;;;;;5067149;28;20050;-79
2023/10/01 04:40:48;;;;;;;1.90;1.48;;;;;;;;;;5067356;28;20052;-79
2023/10/01 04:43:16;;;;;;;4.03;1.33;;;;;;;;;;5067481;28;20029;-79
2023/10/01 04:45:44;;;;;;;4.20;1.67;;;;;;;;;;5070176;28;20028;-79
2023/10/01 04:48:22;;;;;;;4.47;1.95;;;;;;;;;;5065736;28;20154;-80
2023/10/01 04:50:50;;;;;;;2.72;1.42;;;;;;;;;;5066843;28;20024;-80
2023/10/01 04:53:20;;;;;;;1.35;1.23;;;;;;;;;;5067223;28;20052;-80
2023/10/01 04:55:57;;;;;;;1.95;1.85;;;;;;;;;;5067210;28;20423;-80
2023/10/01 04:58:23;;;;;;;2.22;1.25;;;;;;;;;;5070301;28;20545;-79
2023/10/01 05:00:49;;;;;;;2.47;1.55;;;;;;;;;;5067783;28;20025;-79
2023/10/01 05:03:15;;;;;;;4.57;2.08;;;;;;;;;;5066369;28;20502;-80
2023/10/01 05:05:42;;;;;;;2.35;0.90;;;;;;;;;;5067177;28;20056;-80
2023/10/01 05:08:12;;;;;;;1.45;1.20;;;;;;;;;;5065939;28;20021;-80
2023/10/01 05:10:51;;;;;;;2.10;1.20;;;;;;;;;;5067138;28;20025;-80
2023/10/01 05:13:22;;;;;;;2.55;2.15;;;;;;;;;;5084331;28;20059;-80
2023/10/01 05:16:01;;;;;;;3.70;1.73;;;;;;;;;;5067096;28;20040;-80
2023/10/01 05:18:26;;;;;;;1.60;1.30;;;;;;;;;;5066633;28;20293;-80
2023/10/01 05:20:58;;;;;;;2.53;1.45;;;;;;;;;;5065234;28;20039;-79
2023/10/01 05:23:27;;;;;;;1.73;1.20;;;;;;;;;;5081065;28;20036;-78
2023/10/01 05:25:56;;;;;;;1.42;1.13;;;;;;;;;;5065935;28;20431;-79
2023/10/01 05:28:31;;;;;;;2.58;1.42;;;;;;;;;;5066072;28;20361;-79
2023/10/01 05:30:58;;;;;;;4.85;1.73;;;;;;;;;;5065433;28;20041;-79
2023/10/01 05:33:24;;;;;;;3.25;1.35;;;;;;;;;;5068329;28;20035;-79
2023/10/01 05:35:54;;;;;;;1.88;1.58;;;;;;;;;;5065829;28;20032;-81
2023/10/01 05:38:20;;;;;;;;;;;;;;;;;;5066260;28;20043;-80
2023/10/01 05:40:52;;;;;;;2.97;1.25;;;;;;;;;;5066238;28;19912;-80
2023/10/01 05:43:18;;;;;;;2.00;1.65;;;;;;;;;;5058738;28;20058;-79
2023/10/01 05:45:50;;;;;;;3.47;1.98;;;;;;;;;;5050465;28;20033;-80
2023/10/01 05:48:19;;;;;;;1.50;1.35;;;;;;;;;;5052856;28;20033;-81
2023/10/01 05:50:46;;;;;;;1.48;1.25;;;;;;;;;;5050583;28;20036;-80
2023/10/01 05:53:13;;;;;;;1.77;1.35;;;;;;;;;;5053259;28;20047;-80
2023/10/01 05:55:40;;;;;;;1.45;1.30;;;;;;;;;;5052164;28;20477;-80
2023/10/01 05:58:16;;;;;;;1.27;1.17;;;;;;;;;;5053737;28;20060;-81
2023/10/01 06:00:58;;;;;;;2.45;1.48;;;;;;;;;;5058161;28;20020;-80
2023/10/01 06:03:25;;;;;;;2.47;1.85;;;;;;;;;;5058425;28;20099;-82
2023/10/01 06:06:08;;;;;;;1.90;1.38;;;;;;;;;;5049926;28;20116;-82
2023/10/01 06:08:37;;;;;;;1.20;0.80;;;;;;;;;;5051224;28;20020;-80
2023/10/01 06:11:06;;;;;;;1.98;1.13;;;;;;;;;;5046407;28;20040;-81
2023/10/01 06:13:38;;;;;;;2.13;1.40;;;;;;;;;;5062260;28;20095;-81
2023/10/01 06:16:11;;;;;;;2.40;1.42;;;;;;;;;;5078848;28;20042;-81
2023/10/01 06:18:51;;;;;;;1.45;1.13;;;;;;;;;;5062386;28;20041;-80
2023/10/01 06:21:39;;;;;;;2.30;1.33;;;;;;;;;;5046181;28;20028;-81
2023/10/01 06:24:07;;;;;;;1.33;1.05;;;;;;;;;;5045711;28;20037;-82
2023/10/01 06:27:06;;;;;;;3.38;1.65;;;;;;;;;;5047458;28;20033;-80
2023/10/01 06:29:25;;;;;;;2.08;1.33;;;;;;;;;;5043390;28;20049;-81
2023/10/01 06:32:03;;;;;;;4.40;1.02;;;;;;;;;;5061147;28;20041;-81
2023/10/01 06:34:39;;;;;;;1.83;1.17;;;;;;;;;;5063450;28;20124;-81
2023/10/01 06:37:05;;;;;;;1.48;1.30;;;;;;;;;;5060535;28;20047;-82
2023/10/01 06:39:35;;;;;;;2.67;1.20;;;;;;;;;;5047162;28;20498;-81
2023/10/01 06:42:20;;;;;;;2.80;1.83;;;;;;;;;;5048185;28;20021;-86
2023/10/01 06:44:52;;;;;;;1.33;0.98;;;;;;;;;;5065897;28;20032;-81
2023/10/01 06:47:18;;;;;;;2.80;1.77;;;;;;;;;;5053635;28;20400;-81
2023/10/01 06:49:57;;;;;;;3.58;1.55;;;;;;;;;;5067862;28;20102;-81
2023/10/01 06:52:34;;;;;;;1.95;1.50;;;;;;;;;;5052631;28;20028;-82
2023/10/01 06:55:01;;;;;;;2.55;1.38;;;;;;;;;;5049212;28;20025;-81
2023/10/01 06:57:28;;;;;;;2.33;1.40;;;;;;;;;;5051947;28;20035;-84
2023/10/01 06:59:57;;;;;;;2.38;1.75;;;;;;;;;;5051064;28;20037;-82
2023/10/01 07:02:34;;;;;;;2.22;1.67;;;;;;;;;;5051421;28;20048;-84
2023/10/01 07:05:00;;;;;;;2.78;1.60;;;;;;;;;;5050677;28;20037;-81
2023/10/01 07:07:28;;;;;;;3.03;1.63;;;;;;;;;;5049423;28;20163;-83
2023/10/01 07:09:56;;;;;;;2.20;1.40;;;;;;;;;;5050390;28;20082;-83
2023/10/01 07:12:23;;;;;;;2.42;1.63;;;;;;;;;;5050652;28;20433;-83
2023/10/01 07:14:50;;;;;;;10.93;2.17;;;;;;;;;;5050105;28;20048;-82
2023/10/01 07:17:24;;;;;;;1.60;1.45;;;;;;;;;;5049475;28;20036;-83
2023/10/01 07:20:00;;;;;;;3.45;1.77;;;;;;;;;;5056083;28;20040;-82
2023/10/01 07:22:34;;;;;;;2.20;1.33;;;;;;;;;;5050733;28;20385;-82
2023/10/01 07:25:01;;;;;;;3.63;2.00;;;;;;;;;;5051567;28;20057;-83
2023/10/01 07:27:27;;;;;;;9.50;2.33;;;;;;;;;;5051851;28;20476;-82
2023/10/01 07:29:56;;;;;;;4.90;2.15;;;;;;;;;;5084499;28;20032;-82
2023/10/01 07:32:24;;;;;;;3.88;2.15;;;;;;;;;;5051657;28;20072;-81
2023/10/01 07:35:06;;;;;;;3.97;1.65;;;;;;;;;;5050542;28;20040;-83
2023/10/01 07:37:37;;;;;;;4.20;2.45;;;;;;;;;;5050021;28;20021;-82
2023/10/01 07:40:13;;;;;;;6.60;2.70;;;;;;;;;;5051970;28;20021;-82
2023/10/01 07:42:47;;;;;;;3.05;2.13;;;;;;;;;;5048642;28;20062;-83
2023/10/01 07:45:17;;;;;;;2.75;1.90;;;;;;;;;;5051651;28;20039;-81
2023/10/01 07:47:44;;;;;;;4.50;2.42;;;;;;;;;;5050227;28;20029;-83
2023/10/01 07:50:12;;;;;;;2.40;1.55;;;;;;;;;;5051686;28;20099;-84
2023/10/01 07:52:40;;;;;;;2.17;1.65;;;;;;;;;;5050005;28;20116;-83
2023/10/01 07:55:29;;;;;;;4.82;1.27;;;;;;;;;;5050247;28;20504;-79
2023/10/01 07:57:53;;;;;;;8.88;2.50;;;;;;;;;;5052108;28;20038;-82
2023/10/01 08:00:29;;;;;;;5.40;1.85;;;;;;;;;;5050497;28;20027;-83
2023/10/01 08:05:42;;;;;;;6.47;3.22;;;;;;;;;;5046982;28;20110;-83
2023/10/01 08:08:13;;;;;;;2.55;1.85;;;;;;;;;;5051330;28;20119;-80
2023/10/01 08:10:40;;;;;;;3.30;1.65;;;;;;;;;;5051182;28;20112;-81
2023/10/01 08:13:07;;;;;;;7.78;2.72;;;;;;;;;;5066738;28;20060;-82
2023/10/01 08:15:38;;;;;;;2.58;2.08;;;;;;;;;;5051539;28;20110;-80
2023/10/01 08:18:34;;;;;;;2.90;1.13;;;;;;;;;;5051388;28;20104;-82
2023/10/01 08:21:02;;;;;;;3.47;2.38;;;;;;;;;;5047049;28;20028;-84
2023/10/01 08:23:33;;;;;;;3.58;2.30;;;;;;;;;;5050482;28;20064;-82
2023/10/01 08:28:55;;;;;;;2.67;1.95;;;;;;;;;;5051537;28;20542;-82
2023/10/01 08:31:43;;;;;;;4.80;2.72;;;;;;;;;;5050244;28;20041;-83
2023/10/01 08:34:22;;;;;;;4.60;2.05;;;;;;;;;;5053109;28;20473;-83
2023/10/01 08:36:57;;;;;;;3.75;2.53;;;;;;;;;;5051240;28;20032;-83
2023/10/01 08:39:34;;;;;;;3.15;1.95;;;;;;;;;;5049873;28;20029;-81
2023/10/01 08:42:11;;;;;;;3.33;2.22;;;;;;;;;;5047332;28;20033;-84
2023/10/01 08:44:50;;;;;;;8.15;2.30;;;;;;;;;;5086149;28;20461;-83
2023/10/01 08:47:45;;;;;;;3.25;1.63;;;;;;;;;;5051235;28;20029;-83
2023/10/01 08:50:27;;;;;;;4.32;2.92;;;;;;;;;;5047674;28;20024;-83
2023/10/01 08:53:01;;;;;;;11.75;2.38;;;;;;;;;;5066483;28;20029;-83
2023/10/01 08:58:48;;;;;;;8.30;2.60;;;;;;;;;;5050053;28;20036;-82
2023/10/01 09:01:12;;;;;;;6.95;2.67;;;;;;;;;;5051457;28;20033;-83
2023/10/01 09:03:39;;;;;;;2.47;2.10;;;;;;;;;;5050301;28;20033;-84
2023/10/01 09:06:08;;;;;;;3.28;2.15;;;;;;;;;;5056901;28;20035;-84
2023/10/01 09:08:43;;;;;;;4.47;2.85;;;;;;;;;;5065289;28;20094;-82
2023/10/01 09:11:16;;;;;;;14.07;2.33;;;;;;;;;;5048909;28;20029;-83
2023/10/01 09:13:46;;;;;;;2.22;1.45;;;;;;;;;;5066474;28;20048;-82
2023/10/01 09:16:11;;;;;;;4.82;2.75;;;;;;;;;;5064069;28;20111;-82
2023/10/01 09:19:30;;;;;;;1.75;1.35;;;;;;;;;;5053106;28;20071;-83
2023/10/01 09:21:54;;;;;;;9.07;2.40;;;;;;;;;;5054164;28;20465;-83
2023/10/01 09:24:34;;;;;;;1.20;1.10;;;;;;;;;;5068443;28;20052;-83
2023/10/01 09:27:20;;;;;;;3.13;2.40;;;;;;;;;;5053561;28;20017;-82
2023/10/01 09:29:57;;;;;;;4.07;2.75;;;;;;;;;;5054096;28;20483;-83
2023/10/01 09:32:51;;;;;;;2.67;2.10;;;;;;;;;;5069798;28;20048;-83
2023/10/01 09:35:30;;;;;;;6.18;2.38;;;;;;;;;;5054434;28;20566;-83
2023/10/01 09:38:27;;;;;;;3.78;2.40;;;;;;;;;;5051247;28;20086;-83
2023/10/01 09:40:54;;;;;;;3.10;2.38;;;;;;;;;;5048620;28;20041;-84
2023/10/01 09:43:30;;;;;;;2.85;2.30;;;;;;;;;;5054195;28;20035;-82
2023/10/01 09:45:58;;;;;;;2.72;1.65;;;;;;;;;;5052791;28;20078;-84
2023/10/01 09:48:37;;;;;;;1.85;1.30;;;;;;;;;;5053845;28;20029;-83
2023/10/01 09:51:14;;;;;;;3.03;1.88;;;;;;;;;;5054094;28;20527;-83
2023/10/01 09:53:50;;;;;;;3.85;1.70;;;;;;;;;;5054248;28;20036;-81
2023/10/01 09:56:26;;;;;;;2.78;1.77;;;;;;;;;;5066802;28;20039;-82
2023/10/01 09:58:58;;;;;;;6.38;2.58;;;;;;;;;;5054258;28;20036;-82
2023/10/01 10:01:27;;;;;;;2.85;1.58;;;;;;;;;;5088669;28;20067;-83
2023/10/01 10:04:03;;;;;;;2.60;2.00;;;;;;;;;;5053590;28;20548;-84
2023/10/01 10:06:29;;;;;;;5.80;2.75;;;;;;;;;;5068157;28;20790;-82
2023/10/01 10:09:06;;;;;;;2.88;1.80;;;;;;;;;;5052853;28;20104;-83
2023/10/01 10:11:40;;;;;;;2.40;1.42;;;;;;;;;;5053780;28;20021;-81
2023/10/01 10:14:36;;;;;;;2.90;1.75;;;;;;;;;;5052939;28;20469;-83
2023/10/01 10:17:18;;;;;;;3.78;2.20;;;;;;;;;;5050338;28;20029;-81
2023/10/01 10:20:16;;;;;;;4.00;2.60;;;;;;;;;;5053298;28;20025;-82
2023/10/01 10:23:06;;;;;;;2.92;1.90;;;;;;;;;;5052468;28;20029;-82
2023/10/01 10:25:31;;;;;;;3.03;2.15;;;;;;;;;;5069043;28;20016;-82
2023/10/01 10:27:57;;;;;;;5.28;2.45;;;;;;;;;;5070039;28;20036;-82
2023/10/01 10:30:27;;;;;;;5.60;1.77;;;;;;;;;;5053417;28;20021;-82
2023/10/01 10:33:14;;;;;;;4.82;2.33;;;;;;;;;;5067557;28;20037;-82
2023/10/01 10:35:49;;;;;;;2.50;2.10;;;;;;;;;;5050502;28;20044;-82
2023/10/01 10:38:51;;;;;;;2.20;1.52;;;;;;;;;;5052503;28;20096;-83
2023/10/01 10:41:19;;;;;;;3.30;2.35;;;;;;;;;;5051204;28;20073;-83
2023/10/01 10:44:09;;;;;;;2.92;2.22;;;;;;;;;;5052589;28;20366;-82
2023/10/01 10:47:04;;;;;;;2.03;1.42;;;;;;;;;;5051498;28;20050;-83
2023/10/01 10:49:49;;;;;;;6.20;3.13;;;;;;;;;;5051582;28;20028;-82
2023/10/01 10:52:32;;;;;;;2.80;2.00;;;;;;;;;;5050157;28;20025;-82
2023/10/01 10:55:16;;;;;;;1.90;1.35;;;;;;;;;;5052673;28;20020;-82
2023/10/01 10:57:51;;;;;;;3.15;1.80;;;;;;;;;;5052658;28;20075;-83
2023/10/01 11:00:24;;;;;;;4.55;2.80;;;;;;;;;;5050569;28;20056;-82
2023/10/01 11:02:56;;;;;;;2.80;2.22;;;;;;;;;;5068199;28;20016;-85
2023/10/01 11:05:32;;;;;;;3.72;2.40;;;;;;;;;;5052239;28;20469;-83
2023/10/01 11:08:02;;;;;;;4.25;2.50;;;;;;;;;;5050100;28;20480;-83
2023/10/01 11:10:43;;;;;;;2.30;1.60;;;;;;;;;;5067339;28;20036;-82
2023/10/01 11:13:13;;;;;;;3.03;2.20;;;;;;;;;;5048749;28;20021;-82
2023/10/01 11:15:41;;;;;;;1.90;1.38;;;;;;;;;;5052273;28;20139;-83
2023/10/01 11:18:09;;;;;;;2.03;1.38;;;;;;;;;;5050451;28;20029;-84
2023/10/01 11:20:45;;;;;;;3.55;1.92;;;;;;;;;;5051150;28;20036;-83
2023/10/01 11:23:19;;;;;;;2.40;1.67;;;;;;;;;;5050502;28;20025;-83
2023/10/01 11:25:47;;;;;;;7.90;2.38;;;;;;;;;;5051281;28;20147;-81
2023/10/01 11:28:13;;;;;;;3.50;1.85;;;;;;;;;;5070178;28;20020;-83
2023/10/01 11:30:42;;;;;;;4.00;2.65;;;;;;;;;;5052486;28;20397;-83
2023/10/01 11:35:41;;;;;;;3.83;2.97;;;;;;;;;;5051716;28;20028;-80
2023/10/01 11:38:13;;;;;;;;;;;;;;;;;;5052884;28;20051;-80
2023/10/01 11:43:32;;;;;;;5.47;3.17;;;;;;;;;;5051425;28;20047;-82
2023/10/01 11:46:21;;;;;;;3.05;2.15;;;;;;;;;;5049659;28;20024;-82
2023/10/01 11:48:56;;;;;;;3.35;1.67;;;;;;;;;;5050803;28;20040;-81
2023/10/01 11:52:01;;;;;;;3.45;2.42;;;;;;;;;;5050588;28;20388;-82
2023/10/01 11:55:18;;;;;;;4.60;2.30;;;;;;;;;;5067705;28;20099;-80
2023/10/01 11:57:55;;;;;;;1.40;1.17;;;;;;;;;;5044606;28;20037;-81
2023/10/01 12:00:19;;;;;;;5.57;2.70;;;;;;;;;;5048134;28;20037;-81
2023/10/01 12:02:44;;;;;;;3.75;2.28;;;;;;;;;;5049453;28;20084;-80
2023/10/01 12:05:13;;;;;;;5.10;2.28;;;;;;;;;;5051782;28;20032;-82
2023/10/01 12:07:45;;;;;;;2.45;1.98;;;;;;;;;;5051250;28;20036;-82
2023/10/01 12:10:31;;;;;;;2.70;1.85;;;;;;;;;;5049383;28;20033;-81
2023/10/01 12:13:00;;;;;;;6.85;2.70;;;;;;;;;;5050538;28;20032;-80
2023/10/01 12:15:34;;;;;;;2.83;2.00;;;;;;;;;;5050695;28;20032;-81
2023/10/01 12:18:36;;;;;;;2.00;1.77;;;;;;;;;;5065105;28;20495;-83
2023/10/01 12:20:55;;;;;;;4.88;2.45;;;;;;;;;;5050494;28;20506;-84
2023/10/01 12:23:22;;;;;;;4.38;1.55;;;;;;;;;;5083016;28;20082;-81
2023/10/01 12:26:32;;;;;;;2.40;1.52;;;;;;;;;;5049514;28;20028;-82
2023/10/01 12:31:30;;;;;;;3.85;2.47;;;;;;;;;;5049214;28;20052;-81
2023/10/01 12:34:01;;;;;;;2.05;1.60;;;;;;;;;;5049699;28;20477;-80
2023/10/01 12:36:42;;;;;;;2.83;1.85;;;;;;;;;;5049348;28;20492;-82
2023/10/01 12:44:32;;;;;;;2.55;1.83;;;;;;;;;;5050096;28;20033;-81
2023/10/01 12:47:02;;;;;;;4.95;3.05;;;;;;;;;;5050212;28;20056;-81
2023/10/01 12:49:29;;;;;;;5.63;2.85;;;;;;;;;;5049836;28;20036;-82
2023/10/01 12:51:54;;;;;;;4.10;2.22;;;;;;;;;;5049036;28;20020;-81
2023/10/01 12:54:25;;;;;;;5.78;2.60;;;;;;;;;;5067913;28;20020;-80
2023/10/01 12:57:09;;;;;;;3.38;1.67;;;;;;;;;;5054666;28;20166;-81
2023/10/01 12:59:44;;;;;;;1.95;1.70;;;;;;;;;;5069397;28;20017;-81
2023/10/01 13:07:41;;;;;;;4.38;2.50;;;;;;;;;;5054595;28;20090;-81
2023/10/01 13:10:08;;;;;;;3.22;2.00;;;;;;;;;;5069008;28;20033;-81
2023/10/01 13:12:39;;;;;;;4.93;2.88;;;;;;;;;;5055599;28;20044;-82
2023/10/01 13:15:17;;;;;;;5.85;2.85;;;;;;;;;;5052493;28;20033;-83
2023/10/01 13:17:48;;;;;;;4.45;2.85;;;;;;;;;;5050934;28;20033;-83
2023/10/01 13:20:28;;;;;;;2.55;1.65;;;;;;;;;;5051758;28;20036;-82
2023/10/01 13:22:59;;;;;;;4.13;2.50;;;;;;;;;;5054892;28;20020;-82
2023/10/01 13:25:28;;;;;;;4.63;2.47;;;;;;;;;;5051657;28;20057;-83
2023/10/01 13:28:06;;;;;;;7.22;2.83;;;;;;;;;;5052876;28;20029;-81
2023/10/01 13:33:20;;;;;;;4.00;2.78;;;;;;;;;;5053852;28;20032;-81
2023/10/01 13:35:56;;;;;;;3.67;2.60;;;;;;;;;;5052674;28;20090;-84
2023/10/01 13:38:27;;;;;;;3.08;1.75;;;;;;;;;;5054270;28;20025;-79
2023/10/01 14:11:02;;;;;;;11.13;3.03;;;;;;;;;;5053768;28;20048;-81
2023/10/01 14:13:34;;;;;;;3.65;2.28;;;;;;;;;;5051161;28;20086;-79
2023/10/01 14:16:17;;;;;;;4.20;2.28;;;;;;;;;;5051670;28;20117;-79
2023/10/01 14:18:53;;;;;;;7.55;2.97;;;;;;;;;;5051306;28;20049;-79
2023/10/01 14:21:23;;;;;;;3.30;2.05;;;;;;;;;;5050853;28;20044;-80
2023/10/01 14:23:52;;;;;;;3.17;2.47;;;;;;;;;;5051077;28;20536;-80
2023/10/01 14:26:21;;;;;;;4.95;2.95;;;;;;;;;;5067569;28;20134;-81
2023/10/01 14:28:49;;;;;;;3.83;2.80;;;;;;;;;;5052562;28;20079;-81
2023/10/01 14:32:10;;;;;;;3.85;2.17;;;;;;;;;;5051700;28;20493;-80
2023/10/01 14:34:05;;;;;;;4.47;2.97;;;;;;;;;;5044653;28;20060;-79
2023/10/01 14:36:30;;;;;;;5.43;3.15;;;;;;;;;;5051744;28;20041;-79
2023/10/01 14:38:58;;;;;;;3.67;2.53;;;;;;;;;;5051970;28;20032;-79
2023/10/01 14:41:28;;;;;;;4.93;2.55;;;;;;;;;;5051023;28;20025;-79
2023/10/01 14:43:56;;;;;;;3.63;2.15;;;;;;;;;;5051826;28;20063;-79
2023/10/01 14:46:33;;;;;;;3.28;2.40;;;;;;;;;;5052988;28;20017;-79
2023/10/01 14:49:05;;;;;;;9.02;3.63;;;;;;;;;;5051829;28;20028;-79
2023/10/01 14:51:34;;;;;;;3.33;2.17;;;;;;;;;;5050859;28;20385;-79
2023/10/01 14:54:01;;;;;;;5.13;2.80;;;;;;;;;;5050238;28;20079;-80
2023/10/01 14:56:31;;;;;;;6.13;3.40;;;;;;;;;;5052168;28;20036;-79
2023/10/01 14:59:01;;;;;;;5.82;3.47;;;;;;;;;;5050846;28;20029;-79
2023/10/01 15:01:36;;;;;;;5.28;2.70;;;;;;;;;;5050430;28;20120;-78
2023/10/01 15:04:17;;;;;;;3.80;2.17;;;;;;;;;;5049409;28;20032;-80
2023/10/01 15:06:45;;;;;;;4.50;2.92;;;;;;;;;;5050948;28;20052;-79
2023/10/01 15:09:12;;;;;;;5.80;2.50;;;;;;;;;;5051489;28;20033;-80
2023/10/01 15:11:38;;;;;;;4.07;2.40;;;;;;;;;;5050015;28;20059;-81
2023/10/01 15:14:11;;;;;;;4.72;2.78;;;;;;;;;;5051462;28;20021;-79
2023/10/01 15:16:37;;;;;;;4.50;3.03;;;;;;;;;;5050279;28;20028;-79
2023/10/01 15:19:06;;;;;;;3.95;2.85;;;;;;;;;;5051517;28;20032;-80
2023/10/01 15:21:32;;;;;;;5.30;2.95;;;;;;;;;;5050149;28;20025;-79
2023/10/01 15:24:00;;;;;;;6.80;3.47;;;;;;;;;;5049829;28;20075;-79
2023/10/01 15:26:29;;;;;;;4.10;3.30;;;;;;;;;;5051004;28;20060;-81
2023/10/01 15:28:55;;;;;;;7.90;3.38;;;;;;;;;;5050865;28;20035;-79
2023/10/01 15:31:33;;;;;;;6.63;4.03;;;;;;;;;;5051518;28;20147;-80
2023/10/01 15:34:18;;;;;;;5.20;2.67;;;;;;;;;;5049307;28;20292;-80
2023/10/01 15:36:48;;;;;;;4.00;2.83;;;;;;;;;;5050151;28;20374;-81
2023/10/01 15:42:08;;;;;;;7.63;3.40;;;;;;;;;;5050746;28;19924;-80
2023/10/01 15:44:44;;;;;;;5.35;3.78;;;;;;;;;;5049626;28;20067;-80
2023/10/01 15:50:06;;;;;;;7.63;4.35;;;;;;;;;;5050802;28;20469;-81
2023/10/01 15:52:45;;;;;;;8.27;4.55;;;;;;;;;;5050021;28;20033;-81
2023/10/01 15:55:13;;;;;;;4.97;3.85;;;;;;;;;;5066180;28;20024;-81
2023/10/01 15:57:39;;;;;;;4.38;2.45;;;;;;;;;;5050585;28;20436;-81
2023/10/01 16:00:23;;;;;;;5.82;3.45;;;;;;;;;;5050075;28;20063;-81
2023/10/01 16:03:02;;;;;;;4.07;3.28;;;;;;;;;;5049251;28;20155;-81
2023/10/01 16:05:37;;;;;;;7.68;3.70;;;;;;;;;;5049204;28;20106;-80
2023/10/01 16:08:03;;;;;;;6.05;2.85;;;;;;;;;;5066202;28;20369;-80
2023/10/01 16:10:43;;;;;;;7.57;3.67;;;;;;;;;;5050534;28;20183;-80
2023/10/01 16:13:18;;;;;;;5.28;3.38;;;;;;;;;;5050117;28;20033;-81
2023/10/01 16:15:50;;;;;;;5.68;3.97;;;;;;;;;;5050103;28;20025;-80
